createdAt,value
2019-06-08T00:00:13.191Z,100.00
2019-06-08T00:02:42.787Z,100.00
2019-06-08T00:05:12.588Z,100.00
2019-06-08T00:07:41.509Z,100.00
2019-06-08T00:10:10.593Z,100.00
2019-06-08T00:12:39.430Z,100.00
2019-06-08T00:15:08.857Z,100.00
2019-06-08T00:17:39.241Z,100.00
2019-06-08T00:20:08.654Z,100.00
2019-06-08T00:22:37.371Z,100.00
2019-06-08T00:25:06.350Z,100.00
2019-06-08T00:27:35.078Z,100.00
2019-06-08T00:30:05.511Z,100.00
2019-06-08T00:32:34.402Z,100.00
2019-06-08T00:35:03.124Z,100.00
2019-06-08T00:37:31.834Z,100.00
2019-06-08T00:40:00.690Z,100.00
2019-06-08T00:42:29.410Z,100.00
2019-06-08T00:44:58.150Z,100.00
2019-06-08T00:47:44.966Z,100.00
2019-06-08T00:49:57.483Z,100.00
2019-06-08T00:52:26.214Z,100.00
2019-06-08T00:54:54.963Z,100.00
2019-06-08T00:57:23.863Z,100.00
2019-06-08T00:59:52.579Z,100.00
2019-06-08T01:02:22.570Z,100.00
2019-06-08T01:04:51.347Z,100.00
2019-06-08T01:07:20.074Z,100.00
2019-06-08T01:09:49.045Z,100.00
2019-06-08T01:12:18.647Z,100.00
2019-06-08T01:14:47.628Z,100.00
2019-06-08T01:17:16.418Z,100.00
2019-06-08T01:19:45.154Z,100.00
2019-06-08T01:22:13.878Z,100.00
2019-06-08T01:24:43.038Z,100.00
2019-06-08T01:27:11.760Z,100.00
2019-06-08T01:29:40.479Z,100.00
2019-06-08T01:32:09.277Z,100.00
2019-06-08T01:34:38.008Z,100.00
2019-06-08T01:37:06.729Z,100.00
2019-06-08T01:39:35.709Z,100.00
2019-06-08T01:42:04.432Z,100.00
2019-06-08T01:44:33.155Z,100.00
2019-06-08T01:47:01.965Z,100.00
2019-06-08T01:49:30.730Z,100.00
2019-06-08T01:51:59.416Z,100.00
2019-06-08T01:54:29.735Z,100.00
2019-06-08T01:56:58.646Z,100.00
2019-06-08T01:59:27.454Z,100.00
2019-06-08T02:01:56.484Z,100.00
2019-06-08T02:04:26.018Z,100.00
2019-06-08T02:06:54.914Z,100.00
2019-06-08T02:09:24.541Z,100.00
2019-06-08T02:11:53.299Z,100.00
2019-06-08T02:14:22.028Z,100.00
2019-06-08T02:16:50.963Z,100.00
2019-06-08T02:19:19.697Z,100.00
2019-06-08T02:21:48.419Z,100.00
2019-06-08T02:24:17.293Z,100.00
2019-06-08T02:26:46.024Z,100.00
2019-06-08T02:29:14.753Z,100.00
2019-06-08T02:31:47.690Z,100.00
2019-06-08T02:34:14.115Z,100.00
2019-06-08T02:36:42.843Z,100.00
2019-06-08T02:39:11.723Z,100.00
2019-06-08T02:41:40.439Z,100.00
2019-06-08T02:44:09.275Z,100.00
2019-06-08T02:46:40.130Z,100.00
2019-06-08T02:49:08.516Z,100.00
2019-06-08T02:51:38.085Z,100.00
2019-06-08T02:54:07.069Z,100.00
2019-06-08T02:56:36.823Z,100.00
2019-06-08T02:59:06.443Z,100.00
2019-06-08T03:01:38.276Z,100.00
2019-06-08T03:04:06.958Z,100.00
2019-06-08T03:06:39.392Z,100.00
2019-06-08T03:09:08.961Z,100.00
2019-06-08T03:11:39.162Z,100.00
2019-06-08T03:14:08.144Z,100.00
2019-06-08T03:16:39.035Z,100.00
2019-06-08T03:19:20.959Z,100.00
2019-06-08T03:21:38.826Z,100.00
2019-06-08T03:24:08.365Z,100.00
2019-06-08T03:26:40.862Z,100.00
2019-06-08T03:29:07.543Z,100.00
2019-06-08T03:31:44.002Z,100.00
2019-06-08T03:34:07.023Z,100.00
2019-06-08T03:36:40.346Z,100.00
2019-06-08T03:39:07.855Z,100.00
2019-06-08T03:41:38.318Z,100.00
2019-06-08T03:44:07.130Z,100.00
2019-06-08T03:46:36.457Z,100.00
2019-06-08T03:49:05.228Z,100.00
2019-06-08T03:51:36.062Z,100.00
2019-06-08T03:54:04.659Z,100.00
2019-06-08T03:56:33.388Z,100.00
2019-06-08T03:59:02.128Z,100.00
2019-06-08T04:01:30.880Z,100.00
2019-06-08T04:04:00.210Z,100.00
2019-06-08T04:06:29.011Z,100.00
2019-06-08T04:08:57.881Z,100.00
2019-06-08T04:11:26.598Z,100.00
2019-06-08T04:13:55.629Z,100.00
2019-06-08T04:16:24.394Z,100.00
2019-06-08T04:18:53.131Z,100.00
2019-06-08T04:21:21.884Z,100.00
2019-06-08T04:23:50.886Z,100.00
2019-06-08T04:26:19.678Z,100.00
2019-06-08T04:28:49.672Z,100.00
2019-06-08T04:31:18.735Z,100.00
2019-06-08T04:33:47.468Z,100.00
2019-06-08T04:36:16.195Z,100.00
2019-06-08T04:38:45.858Z,100.00
2019-06-08T04:41:15.523Z,100.00
2019-06-08T04:43:45.068Z,100.00
2019-06-08T04:46:14.739Z,100.00
2019-06-08T04:48:45.139Z,100.00
2019-06-08T04:51:13.923Z,100.00
2019-06-08T04:53:43.659Z,100.00
2019-06-08T04:56:13.252Z,100.00
2019-06-08T04:58:43.972Z,98.09
2019-06-08T05:01:12.461Z,97.47
2019-06-08T05:03:41.690Z,92.22
2019-06-08T05:06:11.631Z,89.74
2019-06-08T05:08:40.975Z,89.55
2019-06-08T05:11:09.789Z,87.38
2019-06-08T05:13:39.167Z,85.22
2019-06-08T05:16:08.142Z,84.31
2019-06-08T05:18:36.874Z,82.18
2019-06-08T05:21:05.645Z,81.36
2019-06-08T05:23:34.437Z,81.75
2019-06-08T05:26:03.155Z,83.10
2019-06-08T05:28:31.904Z,83.02
2019-06-08T05:31:00.789Z,83.65
2019-06-08T05:33:29.505Z,85.35
2019-06-08T05:35:58.229Z,85.96
2019-06-08T05:38:27.016Z,87.26
2019-06-08T05:40:55.738Z,87.54
2019-06-08T05:43:24.455Z,87.64
2019-06-08T05:45:53.299Z,87.58
2019-06-08T05:48:22.030Z,87.04
2019-06-08T05:51:03.118Z,86.64
2019-06-08T05:53:22.212Z,85.93
2019-06-08T05:55:50.933Z,87.12
2019-06-08T05:58:19.701Z,86.08
2019-06-08T06:00:48.604Z,83.67
2019-06-08T06:03:17.336Z,85.94
2019-06-08T06:05:46.544Z,84.78
2019-06-08T06:08:19.039Z,83.30
2019-06-08T06:10:46.903Z,80.94
2019-06-08T06:13:15.723Z,82.25
2019-06-08T06:15:45.090Z,80.69
2019-06-08T06:18:13.813Z,80.15
2019-06-08T06:20:43.332Z,76.71
2019-06-08T06:23:12.247Z,78.61
2019-06-08T06:25:41.386Z,77.87
2019-06-08T06:28:10.333Z,77.20
2019-06-08T06:30:39.180Z,74.60
2019-06-08T06:33:07.912Z,74.60
2019-06-08T06:35:38.657Z,73.18
2019-06-08T06:38:07.525Z,71.75
2019-06-08T06:40:36.236Z,69.52
2019-06-08T06:43:04.986Z,67.39
2019-06-08T06:45:33.752Z,69.16
2019-06-08T06:48:02.519Z,64.68
2019-06-08T06:50:31.263Z,64.27
2019-06-08T06:53:00.043Z,66.01
2019-06-08T06:55:28.764Z,61.76
2019-06-08T06:57:57.499Z,62.32
2019-06-08T07:00:31.571Z,61.30
2019-06-08T07:03:01.407Z,58.89
2019-06-08T07:05:30.140Z,62.44
2019-06-08T07:07:59.009Z,62.11
2019-06-08T07:10:27.730Z,60.24
2019-06-08T07:12:56.468Z,57.85
2019-06-08T07:15:29.414Z,56.45
2019-06-08T07:17:58.564Z,56.44
2019-06-08T07:20:27.623Z,55.89
2019-06-08T07:22:56.378Z,55.57
2019-06-08T07:25:25.107Z,56.39
2019-06-08T07:27:55.234Z,56.78
2019-06-08T07:30:24.267Z,55.45
2019-06-08T07:32:53.101Z,54.07
2019-06-08T07:35:21.854Z,54.59
2019-06-08T07:37:51.980Z,56.29
2019-06-08T07:40:21.176Z,55.08
2019-06-08T07:42:51.452Z,53.98
2019-06-08T07:45:20.632Z,54.10
2019-06-08T07:47:49.958Z,55.99
2019-06-08T07:50:18.749Z,53.27
2019-06-08T07:52:47.979Z,52.36
2019-06-08T07:55:19.369Z,53.77
2019-06-08T07:57:49.225Z,52.49
2019-06-08T08:00:18.973Z,51.67
2019-06-08T08:02:48.138Z,51.68
2019-06-08T08:05:16.985Z,51.04
2019-06-08T08:07:45.950Z,50.44
2019-06-08T08:10:16.539Z,49.75
2019-06-08T08:12:45.294Z,50.38
2019-06-08T08:15:15.081Z,53.19
2019-06-08T08:17:43.813Z,51.24
2019-06-08T08:20:13.126Z,48.94
2019-06-08T08:22:41.926Z,49.85
2019-06-08T08:25:11.539Z,49.92
2019-06-08T08:27:40.265Z,49.25
2019-06-08T08:30:11.013Z,47.74
2019-06-08T08:32:39.729Z,48.10
2019-06-08T08:35:09.066Z,48.16
2019-06-08T08:37:38.316Z,47.84
2019-06-08T08:40:08.108Z,46.49
2019-06-08T08:42:38.718Z,46.20
2019-06-08T08:45:09.128Z,45.49
2019-06-08T08:47:38.674Z,47.20
2019-06-08T08:50:10.353Z,47.55
2019-06-08T08:52:40.898Z,48.64
2019-06-08T08:55:10.023Z,45.77
2019-06-08T08:57:41.559Z,46.67
2019-06-08T09:00:10.269Z,46.06
2019-06-08T09:02:39.010Z,45.79
2019-06-08T09:05:08.565Z,45.47
2019-06-08T09:07:38.505Z,46.96
2019-06-08T09:10:10.762Z,46.76
2019-06-08T09:12:38.375Z,47.81
2019-06-08T09:15:10.203Z,46.74
2019-06-08T09:17:39.084Z,49.04
2019-06-08T09:20:13.042Z,47.11
2019-06-08T09:22:52.362Z,46.35
2019-06-08T09:25:12.762Z,46.51
2019-06-08T09:27:40.214Z,46.11
2019-06-08T09:30:09.374Z,46.27
2019-06-08T09:32:38.390Z,47.09
2019-06-08T09:35:09.412Z,47.26
2019-06-08T09:37:37.934Z,45.99
2019-06-08T09:40:07.773Z,44.65
2019-06-08T09:42:36.529Z,45.06
2019-06-08T09:45:09.163Z,46.19
2019-06-08T09:47:38.199Z,45.49
2019-06-08T09:50:09.247Z,49.08
2019-06-08T09:52:40.969Z,45.05
2019-06-08T09:55:09.408Z,46.54
2019-06-08T09:57:38.790Z,44.86
2019-06-08T10:00:18.013Z,40.54
2019-06-08T10:02:40.073Z,40.51
2019-06-08T10:05:09.278Z,43.95
2019-06-08T10:07:38.972Z,39.48
2019-06-08T10:10:14.837Z,39.58
2019-06-08T10:12:43.715Z,40.75
2019-06-08T10:15:12.847Z,42.96
2019-06-08T10:17:41.562Z,41.30
2019-06-08T10:20:10.822Z,40.09
2019-06-08T10:22:39.549Z,41.13
2019-06-08T10:25:11.069Z,38.01
2019-06-08T10:27:39.241Z,38.83
2019-06-08T10:30:10.222Z,38.95
2019-06-08T10:32:39.416Z,39.41
2019-06-08T10:35:10.529Z,36.45
2019-06-08T10:37:39.509Z,37.78
2019-06-08T10:40:10.489Z,39.51
2019-06-08T10:42:40.197Z,38.76
2019-06-08T10:45:13.111Z,37.56
2019-06-08T10:47:40.329Z,35.62
2019-06-08T10:50:15.165Z,34.70
2019-06-08T10:52:41.629Z,35.72
2019-06-08T10:55:12.232Z,37.59
2019-06-08T10:57:41.280Z,36.39
2019-06-08T11:00:22.740Z,36.54
2019-06-08T11:02:48.709Z,35.28
2019-06-08T11:05:18.161Z,35.86
2019-06-08T11:07:48.021Z,33.48
2019-06-08T11:10:19.079Z,34.82
2019-06-08T11:12:48.550Z,34.80
2019-06-08T11:15:17.906Z,36.43
2019-06-08T11:17:46.629Z,34.18
2019-06-08T11:20:15.341Z,34.55
2019-06-08T11:22:44.245Z,34.08
2019-06-08T11:25:16.050Z,35.34
2019-06-08T11:27:43.382Z,36.46
2019-06-08T11:30:20.427Z,33.77
2019-06-08T11:32:42.724Z,34.29
2019-06-08T11:35:12.667Z,35.03
2019-06-08T11:37:41.582Z,35.51
2019-06-08T11:40:12.841Z,35.77
2019-06-08T11:42:41.913Z,36.85
2019-06-08T11:45:13.026Z,30.77
2019-06-08T11:47:41.682Z,32.83
2019-06-08T11:50:13.280Z,31.15
2019-06-08T11:52:41.310Z,32.16
2019-06-08T11:55:12.743Z,31.07
2019-06-08T11:57:40.674Z,36.11
2019-06-08T12:00:24.163Z,32.13
2019-06-08T12:02:41.524Z,32.92
2019-06-08T12:05:12.417Z,32.85
2019-06-08T12:07:41.007Z,35.34
2019-06-08T12:10:12.506Z,35.60
2019-06-08T12:12:40.766Z,35.01
2019-06-08T12:15:11.970Z,30.49
2019-06-08T12:17:40.467Z,31.12
2019-06-08T12:20:14.042Z,32.20
2019-06-08T12:22:40.234Z,30.05
2019-06-08T12:25:10.327Z,30.14
2019-06-08T12:27:40.118Z,31.17
2019-06-08T12:30:17.412Z,31.22
2019-06-08T12:32:39.861Z,31.03
2019-06-08T12:35:10.670Z,31.39
2019-06-08T12:37:40.309Z,30.57
2019-06-08T12:40:11.526Z,30.98
2019-06-08T12:42:39.570Z,29.75
2019-06-08T12:45:09.346Z,28.33
2019-06-08T12:47:38.359Z,29.31
2019-06-08T12:50:09.049Z,31.16
2019-06-08T12:52:39.138Z,30.15
2019-06-08T12:55:14.329Z,32.99
2019-06-08T12:57:39.347Z,31.81
2019-06-08T13:00:10.278Z,29.87
2019-06-08T13:02:41.409Z,28.55
2019-06-08T13:05:13.297Z,32.03
2019-06-08T13:07:40.605Z,29.26
2019-06-08T13:10:09.419Z,30.76
2019-06-08T13:12:40.655Z,30.73
2019-06-08T13:15:10.074Z,34.79
2019-06-08T13:17:39.384Z,33.73
2019-06-08T13:20:22.170Z,33.92
2019-06-08T13:22:49.437Z,31.01
2019-06-08T13:25:31.106Z,30.63
2019-06-08T13:27:48.760Z,28.46
2019-06-08T13:30:22.848Z,29.84
2019-06-08T13:32:48.446Z,28.40
2019-06-08T13:35:20.735Z,30.36
2019-06-08T13:37:47.876Z,29.23
2019-06-08T13:40:21.779Z,28.79
2019-06-08T13:42:51.284Z,29.86
2019-06-08T13:45:21.806Z,28.89
2019-06-08T13:47:50.554Z,30.41
2019-06-08T13:50:22.223Z,30.41
2019-06-08T13:52:50.954Z,28.81
2019-06-08T13:55:36.673Z,30.03
2019-06-08T13:57:50.443Z,29.23
2019-06-08T14:00:23.358Z,30.59
2019-06-08T14:02:52.518Z,30.89
2019-06-08T14:05:30.775Z,29.38
2019-06-08T14:08:00.671Z,30.04
2019-06-08T14:10:40.636Z,31.55
2019-06-08T14:13:10.164Z,32.81
2019-06-08T14:15:38.875Z,32.11
2019-06-08T14:18:08.759Z,32.94
2019-06-08T14:20:38.656Z,31.12
2019-06-08T14:23:09.181Z,27.58
2019-06-08T14:25:47.915Z,29.23
2019-06-08T14:28:08.663Z,33.57
2019-06-08T14:30:37.903Z,31.49
2019-06-08T14:33:08.399Z,29.93
2019-06-08T14:35:37.314Z,32.19
2019-06-08T14:38:06.033Z,32.00
2019-06-08T14:40:37.425Z,36.15
2019-06-08T14:43:05.548Z,29.28
2019-06-08T14:45:34.261Z,31.82
2019-06-08T14:48:04.292Z,32.09
2019-06-08T14:50:33.011Z,33.80
2019-06-08T14:53:01.731Z,36.21
2019-06-08T14:55:34.144Z,36.68
2019-06-08T14:58:01.009Z,36.92
2019-06-08T15:00:29.812Z,35.69
2019-06-08T15:02:59.267Z,35.63
2019-06-08T15:05:30.706Z,35.85
2019-06-08T15:08:00.896Z,34.70
2019-06-08T15:10:31.004Z,34.22
2019-06-08T15:12:59.696Z,38.22
2019-06-08T15:15:30.725Z,36.93
2019-06-08T15:17:59.015Z,36.96
2019-06-08T15:20:28.598Z,35.60
2019-06-08T15:22:58.050Z,35.10
2019-06-08T15:25:29.485Z,35.83
2019-06-08T15:27:58.247Z,37.08
2019-06-08T15:30:29.773Z,40.27
2019-06-08T15:32:58.904Z,37.36
2019-06-08T15:35:27.704Z,39.20
2019-06-08T15:37:58.452Z,36.78
2019-06-08T15:40:27.798Z,36.87
2019-06-08T15:42:58.502Z,35.27
2019-06-08T15:45:30.980Z,38.30
2019-06-08T15:47:58.686Z,38.29
2019-06-08T15:50:28.468Z,37.74
2019-06-08T15:52:59.765Z,40.22
2019-06-08T15:55:31.231Z,40.54
2019-06-08T15:57:58.691Z,40.88
2019-06-08T16:00:29.371Z,38.61
2019-06-08T16:02:58.972Z,39.56
2019-06-08T16:05:27.958Z,40.70
2019-06-08T16:07:56.677Z,41.65
2019-06-08T16:10:26.338Z,41.57
2019-06-08T16:12:55.156Z,41.20
2019-06-08T16:15:24.879Z,40.96
2019-06-08T16:17:53.818Z,42.15
2019-06-08T16:20:22.560Z,42.03
2019-06-08T16:22:51.279Z,43.84
2019-06-08T16:25:20.031Z,44.38
2019-06-08T16:27:48.753Z,45.32
2019-06-08T16:30:17.776Z,43.46
2019-06-08T16:32:46.714Z,42.67
2019-06-08T16:35:15.528Z,45.18
2019-06-08T16:37:44.241Z,49.46
2019-06-08T16:40:13.418Z,45.40
2019-06-08T16:42:42.131Z,48.39
2019-06-08T16:45:11.556Z,47.55
2019-06-08T16:47:43.187Z,45.30
2019-06-08T16:50:23.452Z,47.78
2019-06-08T16:52:42.109Z,50.20
2019-06-08T16:55:11.355Z,49.92
2019-06-08T16:57:41.288Z,49.22
2019-06-08T17:02:40.785Z,52.86
2019-06-08T17:05:09.699Z,53.69
2019-06-08T17:07:39.646Z,51.48
2019-06-08T17:10:08.967Z,51.20
2019-06-08T17:12:39.012Z,50.58
2019-06-08T17:15:08.191Z,52.26
2019-06-08T17:17:38.496Z,54.01
2019-06-08T17:20:08.167Z,53.70
2019-06-08T17:22:36.997Z,53.54
2019-06-08T17:25:10.360Z,54.46
2019-06-08T17:27:39.091Z,54.41
2019-06-08T17:30:08.989Z,54.46
2019-06-08T17:32:38.437Z,55.61
2019-06-08T17:35:08.021Z,56.77
2019-06-08T17:37:38.003Z,57.90
2019-06-08T17:40:07.381Z,59.56
2019-06-08T17:42:37.477Z,58.92
2019-06-08T17:45:09.786Z,60.19
2019-06-08T17:47:38.763Z,59.65
2019-06-08T17:50:07.597Z,59.74
2019-06-08T17:52:37.059Z,62.00
2019-06-08T17:55:07.100Z,60.58
2019-06-08T17:57:47.160Z,60.22
2019-06-08T18:00:09.834Z,61.29
2019-06-08T18:02:41.937Z,61.14
2019-06-08T18:05:10.772Z,62.53
2019-06-08T18:07:41.991Z,62.61
2019-06-08T18:10:10.581Z,64.03
2019-06-08T18:12:42.869Z,64.22
2019-06-08T18:15:10.148Z,64.16
2019-06-08T18:17:42.129Z,65.17
2019-06-08T18:20:12.981Z,63.43
2019-06-08T18:22:44.451Z,64.19
2019-06-08T18:25:14.405Z,65.26
2019-06-08T18:28:00.735Z,65.64
2019-06-08T18:30:18.997Z,65.14
2019-06-08T18:32:48.550Z,65.01
2019-06-08T18:35:18.204Z,65.00
2019-06-08T18:37:48.649Z,65.61
2019-06-08T18:40:18.180Z,66.23
2019-06-08T18:42:48.814Z,67.42
2019-06-08T18:45:18.772Z,67.63
2019-06-08T18:47:48.416Z,66.37
2019-06-08T18:50:17.635Z,66.85
2019-06-08T18:52:49.497Z,66.10
2019-06-08T18:55:18.272Z,65.79
2019-06-08T18:57:48.945Z,65.84
2019-06-08T19:00:18.106Z,65.36
2019-06-08T19:02:50.011Z,64.82
2019-06-08T19:05:18.196Z,63.96
2019-06-08T19:07:51.592Z,62.58
2019-06-08T19:10:30.628Z,62.45
2019-06-08T19:12:59.353Z,61.25
2019-06-08T19:15:39.880Z,59.25
2019-06-08T19:18:08.060Z,57.81
2019-06-08T19:20:40.663Z,57.81
2019-06-08T19:23:08.991Z,57.30
2019-06-08T19:25:42.149Z,57.21
2019-06-08T19:28:08.504Z,57.20
2019-06-08T19:30:39.400Z,57.20
2019-06-08T19:33:07.863Z,56.21
2019-06-08T19:35:37.645Z,56.21
2019-06-08T19:38:08.780Z,56.17
2019-06-08T19:40:41.000Z,56.45
2019-06-08T19:43:11.046Z,56.45
2019-06-08T19:45:41.873Z,55.16
2019-06-08T19:48:10.287Z,55.89
2019-06-08T19:50:40.136Z,55.58
2019-06-08T19:53:09.653Z,55.93
2019-06-08T19:55:39.467Z,56.23
2019-06-08T19:58:08.981Z,56.39
2019-06-08T20:00:39.250Z,56.64
2019-06-08T20:03:08.360Z,57.05
2019-06-08T20:05:37.810Z,58.19
2019-06-08T20:08:08.070Z,58.05
2019-06-08T20:10:37.090Z,58.90
2019-06-08T20:13:07.722Z,59.13
2019-06-08T20:15:43.365Z,59.58
2019-06-08T20:18:06.837Z,60.84
2019-06-08T20:20:38.014Z,60.86
2019-06-08T20:23:09.522Z,61.71
2019-06-08T20:25:38.159Z,62.21
2019-06-08T20:28:07.981Z,62.81
2019-06-08T20:30:36.948Z,63.24
2019-06-08T20:33:08.016Z,63.06
2019-06-08T20:35:37.634Z,63.24
2019-06-08T20:38:08.242Z,63.60
2019-06-08T20:40:38.342Z,62.78
2019-06-08T20:43:07.252Z,62.76
2019-06-08T20:45:37.669Z,62.22
2019-06-08T20:48:08.794Z,62.26
2019-06-08T20:50:37.918Z,61.73
2019-06-08T20:53:08.462Z,61.29
2019-06-08T20:55:40.738Z,61.13
2019-06-08T20:58:09.447Z,60.63
2019-06-08T21:00:38.339Z,59.76
2019-06-08T21:03:08.199Z,59.61
2019-06-08T21:05:37.311Z,59.16
2019-06-08T21:08:08.355Z,59.70
2019-06-08T21:10:37.763Z,58.86
2019-06-08T21:13:07.381Z,58.82
2019-06-08T21:15:38.181Z,58.38
2019-06-08T21:18:07.874Z,59.49
2019-06-08T21:20:37.816Z,61.37
2019-06-08T21:23:08.152Z,63.05
2019-06-08T21:25:37.296Z,63.74
2019-06-08T21:28:07.814Z,65.13
2019-06-08T21:30:37.779Z,64.73
2019-06-08T21:33:08.213Z,65.20
2019-06-08T21:35:37.192Z,66.27
2019-06-08T21:38:20.357Z,66.83
2019-06-08T21:40:37.606Z,67.87
2019-06-08T21:43:08.168Z,67.42
2019-06-08T21:45:38.095Z,68.33
2019-06-08T21:48:11.511Z,68.93
2019-06-08T21:50:40.233Z,69.22
2019-06-08T21:53:09.097Z,69.19
2019-06-08T21:55:38.239Z,69.03
2019-06-08T21:58:08.796Z,69.44
2019-06-08T22:00:43.247Z,70.59
2019-06-08T22:03:09.667Z,71.31
2019-06-08T22:05:38.473Z,71.01
2019-06-08T22:08:08.003Z,72.21
2019-06-08T22:10:38.554Z,73.01
2019-06-08T22:13:08.629Z,72.72
2019-06-08T22:15:39.509Z,74.39
2019-06-08T22:18:08.403Z,75.27
2019-06-08T22:20:38.661Z,76.23
2019-06-08T22:23:07.477Z,76.25
2019-06-08T22:25:38.536Z,76.82
2019-06-08T22:28:07.261Z,77.39
2019-06-08T22:30:42.538Z,77.80
2019-06-08T22:33:06.666Z,77.68
2019-06-08T22:35:37.295Z,77.88
2019-06-08T22:38:08.383Z,76.34
2019-06-08T22:40:37.108Z,76.31
2019-06-08T22:43:07.982Z,76.32
2019-06-08T22:45:37.471Z,76.87
2019-06-08T22:48:08.247Z,75.20
2019-06-08T22:50:38.230Z,75.04
2019-06-08T22:53:07.990Z,75.13
2019-06-08T22:55:38.169Z,73.66
2019-06-08T22:58:07.703Z,73.32
2019-06-08T23:00:51.261Z,73.27
2019-06-08T23:03:08.509Z,73.66
2019-06-08T23:05:37.661Z,74.40
2019-06-08T23:08:09.359Z,74.45
2019-06-08T23:10:37.493Z,75.27
2019-06-08T23:13:08.559Z,75.89
2019-06-08T23:15:36.882Z,76.64
2019-06-08T23:18:06.644Z,77.18
2019-06-08T23:20:37.145Z,77.10
2019-06-08T23:23:08.685Z,77.82
2019-06-08T23:25:37.301Z,77.80
2019-06-08T23:28:09.663Z,78.06
2019-06-08T23:30:38.230Z,77.97
2019-06-08T23:33:11.365Z,77.99
2019-06-08T23:36:02.865Z,78.37
2019-06-08T23:38:09.486Z,79.29
2019-06-08T23:40:38.386Z,79.85
2019-06-08T23:43:08.270Z,80.37
2019-06-08T23:45:37.958Z,80.48
2019-06-08T23:48:06.976Z,80.79
2019-06-08T23:50:37.798Z,81.55
2019-06-08T23:53:09.107Z,81.11
2019-06-08T23:55:37.252Z,81.81
2019-06-08T23:58:09.568Z,82.38
